Disclaimer

Please do not use the information listed here in-flight or in-navigation, as they are not provided to us by the airports but are provided by volunteers, so they might be outdated.

Search


Regions


Airport information page

Radio informations:
Tower (TWR) - 125.425 MHz
RDO - 5637 MHz

Airport informations:
Latitude: 37° 45' 03.07" N
Longitude: 020° 53' 03.30" E
Elevation: 15 feet - 5 meters
Operating hours: Remarks
Operating agency: Civil government, landing fees and diplomatic clearance may be required
Timezone: UTC+2(+3DT) - Last Sunday in March to last Sunday in October
Fuel: Jet A1, without icing nhibitor.

Runway information:
16/34 - 7310 x 98 feet< - >2228 x 30 meters

Recent METARs:
LGZA 170750Z 01004KT 9999 FEW012 SCT020 BKN070 12/10 Q1017
LGZA 170750Z 01004KT 9999 FEW012 SCT020 BKN070 12/10 Q1017
LGZA 170850Z VRB03KT 9999 FEW012 SCT020 BKN070 12/10 Q1017

Airport on the map: